Laguepe — 9HAI9 — position and weather

sailwx.info

Track history (hours):
 
Tides and Currents Weather Stations Pressure Air Temp Water Temp Dewpoint Dewpoint Depression Visibility Wind Speed Wind Dir Waves Ship Positions

Laguepe

Last reported at 2018-Feb-20 18:57 UTC. Time now 2018-Feb-20 19:28 UTC.
Position N 44°19' E 008°30'.

Length 81 m; draft 3.2 m.

Type: Cargo ship. MMSI: 256681000.

Date/timePositionNaut miles runAvg speedWind from/ knotsBaromVisibWave heightAir tempDewpointWater temp
2018-Feb-20 18:57N 44°19' E 008°30'0 0.0
2018-Feb-20 18:27N 44°19' E 008°30'0 0.0
2018-Feb-20 17:57N 44°19' E 008°30'0 0.0
2018-Feb-20 17:27N 44°19' E 008°30'0 0.0
2018-Feb-20 16:57N 44°19' E 008°30'0 0.0
2018-Feb-20 16:27N 44°19' E 008°30'0 0.0
2018-Feb-20 15:57N 44°19' E 008°30'0 0.0
2018-Feb-20 15:27N 44°19' E 008°30'0 0.0
2018-Feb-20 14:51N 44°19' E 008°30'0 0.0
2018-Feb-20 14:27N 44°19' E 008°30'0 0.0
2018-Feb-20 13:57N 44°19' E 008°30'0 0.0
2018-Feb-20 12:57N 44°19' E 008°30'0 0.0
2018-Feb-20 12:27N 44°19' E 008°30'0 0.0
2018-Feb-20 11:45N 44°19' E 008°30'0 0.0
2018-Feb-20 11:21N 44°19' E 008°30'0 0.0
2018-Feb-20 10:33N 44°19' E 008°30'0 0.1
2018-Feb-20 10:27N 44°19' E 008°30'0 0.0
2018-Feb-20 09:27N 44°19' E 008°30'0 0.0
2018-Feb-20 08:57N 44°19' E 008°30'0 0.0
2018-Feb-20 08:27N 44°19' E 008°30'1 1.3
2018-Feb-20 08:01N 44°19' E 008°30'3 6.6
2018-Feb-20 07:30N 44°16' E 008°31'3 6.3
2018-Feb-20 06:59N 44°12' E 008°31'3 6.3
2018-Feb-20 06:30N 44°10' E 008°29'3 6.6
2018-Feb-20 06:00N 44°07' E 008°26'3 6.1
2018-Feb-20 05:27N 44°04' E 008°24'52 6.8
2018-Feb-19 21:43N 43°30' E 007°29'3 7.2
2018-Feb-19 21:20N 43°29' E 007°26'3 7.3
2018-Feb-19 21:00N 43°27' E 007°23'9 7.0
2018-Feb-19 19:44N 43°22' E 007°13'2 7.1
2018-Feb-19 19:25N 43°20' E 007°11'3 7.1
2018-Feb-19 19:01N 43°19' E 007°08'4 7.1
2018-Feb-19 18:31N 43°16' E 007°04'93 7.4
2018-Feb-19 05:57N 43°23' E 004°56'4 8.3
2018-Feb-19 05:31N 43°23' E 004°51'2 4.1
2018-Feb-19 05:01N 43°23' E 004°49'0 0.1
2018-Feb-19 04:30N 43°23' E 004°48'0 0.0
2018-Feb-19 03:59N 43°23' E 004°48'0 0.0
2018-Feb-19 03:29N 43°23' E 004°48'0 0.0
2018-Feb-19 02:59N 43°23' E 004°48'0 0.0
2018-Feb-19 02:29N 43°23' E 004°48'0 0.0
2018-Feb-19 01:59N 43°23' E 004°48'0 0.0
2018-Feb-19 01:29N 43°23' E 004°48'0 0.0
2018-Feb-19 00:59N 43°23' E 004°48'0 0.0
2018-Feb-19 00:29N 43°23' E 004°48'0 0.0
2018-Feb-18 23:59N 43°23' E 004°48'0 0.0
2018-Feb-18 23:23N 43°23' E 004°48'0 0.0
2018-Feb-18 22:59N 43°23' E 004°48'0 0.0
2018-Feb-18 22:26N 43°23' E 004°48'0 0.0
2018-Feb-18 21:59N 43°23' E 004°48'0 0.0
2018-Feb-18 21:29N 43°23' E 004°48'0 0.0
2018-Feb-18 20:59N 43°23' E 004°48'0 0.0
2018-Feb-18 20:29N 43°23' E 004°48'0 0.0
2018-Feb-18 19:56N 43°23' E 004°48'0 0.0
2018-Feb-18 19:29N 43°23' E 004°48'0 0.0
2018-Feb-18 18:56N 43°23' E 004°48'0 0.0
2018-Feb-18 18:29N 43°23' E 004°48'0 0.0
2018-Feb-18 17:56N 43°23' E 004°48'0 0.0
2018-Feb-18 17:29N 43°23' E 004°48'0 0.0
2018-Feb-18 16:59N 43°23' E 004°48'0 0.0
2018-Feb-18 16:30N 43°23' E 004°48'0 0.0
2018-Feb-18 16:00N 43°23' E 004°48'0 0.0
2018-Feb-18 15:30N 43°23' E 004°48'0 0.0
2018-Feb-18 15:00N 43°23' E 004°48'0 0.0
2018-Feb-18 14:30N 43°23' E 004°48'0 0.9
2018-Feb-18 14:00N 43°23' E 004°48'5 8.6
2018-Feb-18 13:25N 43°28' E 004°45'  
2018-Feb-14 20:23N 43°26' E 004°44'3 7.2
2018-Feb-14 20:00N 43°24' E 004°47'2 3.1
2018-Feb-14 19:30N 43°23' E 004°49'0 0.3
2018-Feb-14 19:00N 43°23' E 004°48'3 6.0
2018-Feb-14 18:30N 43°24' E 004°53'4 8.0
2018-Feb-14 17:59N 43°22' E 004°58'3 6.0
2018-Feb-14 17:30N 43°19' E 004°59'4 8.0
2018-Feb-14 17:00N 43°16' E 005°03'4 8.2
2018-Feb-14 16:30N 43°13' E 005°07'82 6.9
2018-Feb-14 04:39N 43°14' E 006°59'1 8.3
2018-Feb-14 04:30N 43°15' E 007°01'4 8.9
2018-Feb-14 04:00N 43°18' E 007°06'4 8.7
2018-Feb-14 03:30N 43°20' E 007°10'5 8.6
2018-Feb-14 02:59N 43°23' E 007°15'5 8.9
2018-Feb-14 02:28N 43°26' E 007°20'4 9.0
2018-Feb-14 02:00N 43°28' E 007°25'62 8.6
2018-Feb-13 18:49N 44°09' E 008°29'3 8.0
2018-Feb-13 18:30N 44°11' E 008°32'4 8.9
2018-Feb-13 18:00N 44°13' E 008°37'4 9.0
2018-Feb-13 17:30N 44°15' E 008°42'5 9.5
2018-Feb-13 17:00N 44°18' E 008°48'5 9.3
2018-Feb-13 16:30N 44°20' E 008°53'4 7.1
2018-Feb-13 16:00N 44°24' E 008°53'1 1.2
2018-Feb-13 15:29N 44°24' E 008°52'0 0.0
2018-Feb-13 14:59N 44°24' E 008°52'0 0.0
2018-Feb-13 14:29N 44°24' E 008°52'0 0.0
2018-Feb-13 13:59N 44°24' E 008°52'0 0.0
2018-Feb-13 13:26N 44°24' E 008°52'0 0.0
2018-Feb-13 12:59N 44°24' E 008°52'0 0.0
2018-Feb-13 12:26N 44°24' E 008°52'0 0.0
2018-Feb-13 11:53N 44°24' E 008°52'0 0.0
2018-Feb-13 11:26N 44°24' E 008°52'0 0.0
2018-Feb-13 10:59N 44°24' E 008°52'0 0.0
2018-Feb-13 10:29N 44°24' E 008°52'0 0.0
2018-Feb-13 09:59N 44°24' E 008°52'0 0.0
2018-Feb-13 09:26N 44°24' E 008°52'0 0.0
2018-Feb-13 08:56N 44°24' E 008°52'0 0.0
2018-Feb-13 08:26N 44°24' E 008°52'0 0.0
2018-Feb-13 07:56N 44°24' E 008°52'0 0.0
2018-Feb-13 07:26N 44°24' E 008°52'0 0.0
2018-Feb-13 06:56N 44°24' E 008°52'0 0.0
2018-Feb-13 06:29N 44°24' E 008°52'0 0.0
2018-Feb-13 05:59N 44°24' E 008°52'0 0.0
2018-Feb-13 05:29N 44°24' E 008°52'0 0.0
2018-Feb-13 04:59N 44°24' E 008°52'0 0.0
2018-Feb-13 04:29N 44°24' E 008°52'0 0.0
2018-Feb-13 03:59N 44°24' E 008°52'0 0.0
2018-Feb-13 03:29N 44°24' E 008°52'0 0.0
2018-Feb-13 02:59N 44°24' E 008°52'0 0.0
2018-Feb-13 02:29N 44°24' E 008°52'0 0.0
2018-Feb-13 01:59N 44°24' E 008°52'0 0.0
2018-Feb-13 01:29N 44°24' E 008°52'0 0.0
2018-Feb-13 00:59N 44°24' E 008°52'0 0.0
2018-Feb-13 00:29N 44°24' E 008°52'0 0.0
2018-Feb-12 23:59N 44°24' E 008°52'0 0.0
2018-Feb-12 23:20N 44°24' E 008°52'0 0.0
2018-Feb-12 22:59N 44°24' E 008°52'0 0.0
2018-Feb-12 22:29N 44°24' E 008°52'0 0.0
2018-Feb-12 21:53N 44°24' E 008°52'0 0.0
2018-Feb-12 21:29N 44°24' E 008°52'0 0.0
2018-Feb-12 20:56N 44°24' E 008°52'0 0.0
2018-Feb-12 20:29N 44°24' E 008°52'0 0.0
2018-Feb-12 19:53N 44°24' E 008°52'0 0.0
2018-Feb-12 19:26N 44°24' E 008°52'0 0.0
2018-Feb-12 18:59N 44°24' E 008°52'0 0.0
2018-Feb-12 18:26N 44°24' E 008°52'0 0.0
2018-Feb-12 17:59N 44°24' E 008°52'0 0.0
2018-Feb-12 17:26N 44°24' E 008°52'0 0.0
2018-Feb-12 16:56N 44°24' E 008°52'0 0.0
2018-Feb-12 16:29N 44°24' E 008°52'0 0.0
2018-Feb-12 15:59N 44°24' E 008°52'0 0.0
2018-Feb-12 15:29N 44°24' E 008°52'0 0.0
2018-Feb-12 14:59N 44°24' E 008°52'0 0.0
2018-Feb-12 14:29N 44°24' E 008°52'0 0.0
2018-Feb-12 13:59N 44°24' E 008°52'0 0.0
2018-Feb-12 13:29N 44°24' E 008°52'0 0.0
2018-Feb-12 12:59N 44°24' E 008°52'0 0.0
2018-Feb-12 12:29N 44°24' E 008°52'0 0.0
2018-Feb-12 11:59N 44°24' E 008°52'0 0.0
2018-Feb-12 11:29N 44°24' E 008°52'0 0.0
2018-Feb-12 10:59N 44°24' E 008°52'0 0.0
2018-Feb-12 10:29N 44°24' E 008°52'0 0.0
2018-Feb-12 09:59N 44°24' E 008°52'0 0.0
2018-Feb-12 09:23N 44°24' E 008°52'0 0.0
2018-Feb-12 08:50N 44°24' E 008°52'0 0.0
2018-Feb-12 08:20N 44°24' E 008°52'0 0.0
2018-Feb-12 07:59N 44°24' E 008°52'0 0.0
2018-Feb-12 07:23N 44°24' E 008°52'0 0.0
2018-Feb-12 06:50N 44°24' E 008°52'0 0.0
2018-Feb-12 06:26N 44°24' E 008°52'0 0.0
2018-Feb-12 05:59N 44°24' E 008°52'0 0.0
2018-Feb-12 05:26N 44°24' E 008°52'0 0.0
2018-Feb-12 04:56N 44°24' E 008°52'0 0.0
2018-Feb-12 04:26N 44°24' E 008°52'0 0.0
2018-Feb-12 03:56N 44°24' E 008°52'0 0.0
2018-Feb-12 03:26N 44°24' E 008°52'0 0.0
2018-Feb-12 02:56N 44°24' E 008°52'0 0.0
2018-Feb-12 02:29N 44°24' E 008°52'0 0.0
2018-Feb-12 01:59N 44°24' E 008°52'0 0.0
2018-Feb-12 01:29N 44°24' E 008°52'0 0.0
2018-Feb-12 00:59N 44°24' E 008°52'0 0.0
2018-Feb-12 00:29N 44°24' E 008°52'0 0.0
2018-Feb-11 23:59N 44°24' E 008°52'0 0.0
2018-Feb-11 23:29N 44°24' E 008°52'0 0.0
2018-Feb-11 22:59N 44°24' E 008°52'0 0.0
2018-Feb-11 22:29N 44°24' E 008°52'0 0.0
2018-Feb-11 21:59N 44°24' E 008°52'0 0.0
2018-Feb-11 21:29N 44°24' E 008°52'0 0.0
2018-Feb-11 20:59N 44°24' E 008°52'0 0.0
2018-Feb-11 20:29N 44°24' E 008°52'0 0.0
2018-Feb-11 19:59N 44°24' E 008°52'0 0.0
2018-Feb-11 19:26N 44°24' E 008°52'0 0.0
2018-Feb-11 18:59N 44°24' E 008°52'0 0.0
2018-Feb-11 18:26N 44°24' E 008°52'0 0.0
2018-Feb-11 17:53N 44°24' E 008°52'0 0.0
2018-Feb-11 17:26N 44°24' E 008°52'0 0.0
2018-Feb-11 16:56N 44°24' E 008°52'0 0.0
2018-Feb-11 16:29N 44°24' E 008°52'0 0.0
2018-Feb-11 15:53N 44°24' E 008°52'0 0.0
2018-Feb-11 15:29N 44°24' E 008°52'0 0.0
2018-Feb-11 14:56N 44°24' E 008°52'0 0.0
2018-Feb-11 14:29N 44°24' E 008°52'0 0.0
2018-Feb-11 13:59N 44°24' E 008°52'0 0.0
2018-Feb-11 13:26N 44°24' E 008°52'0 0.0
2018-Feb-11 12:59N 44°24' E 008°52'0 0.0
2018-Feb-11 12:29N 44°24' E 008°52'0 0.0
2018-Feb-11 11:59N 44°24' E 008°52'0 0.0
2018-Feb-11 11:29N 44°24' E 008°52'0 0.0
2018-Feb-11 10:59N 44°24' E 008°52'0 0.0
2018-Feb-11 10:29N 44°24' E 008°52'0 0.0
2018-Feb-11 09:59N 44°24' E 008°52'0 0.0
2018-Feb-11 09:29N 44°24' E 008°52'0 0.0
2018-Feb-11 08:59N 44°24' E 008°52'0 0.0
2018-Feb-11 08:29N 44°24' E 008°52'0 0.0
2018-Feb-11 07:59N 44°24' E 008°52'0 0.0
2018-Feb-11 07:29N 44°24' E 008°52'0 0.0
2018-Feb-11 06:50N 44°24' E 008°52'0 0.0
2018-Feb-11 06:29N 44°24' E 008°52'0 0.0
2018-Feb-11 05:59N 44°24' E 008°52'0 0.0
2018-Feb-11 05:26N 44°24' E 008°52'0 0.0
2018-Feb-11 04:56N 44°24' E 008°52'0 0.0
2018-Feb-11 04:29N 44°24' E 008°52'0 0.0
2018-Feb-11 03:56N 44°24' E 008°52'0 0.0
2018-Feb-11 03:20N 44°24' E 008°52'0 0.0
2018-Feb-11 02:56N 44°24' E 008°52'0 0.0
2018-Feb-11 02:23N 44°24' E 008°52'0 0.0
2018-Feb-11 01:59N 44°24' E 008°52'0 0.0
2018-Feb-11 01:26N 44°24' E 008°52'0 0.0
2018-Feb-11 00:56N 44°24' E 008°52'0 0.0
2018-Feb-11 00:27N 44°24' E 008°52'0 0.0
2018-Feb-11 00:00N 44°24' E 008°52'1 1.3
2018-Feb-10 23:30N 44°24' E 008°53'3 6.0
2018-Feb-10 23:00N 44°22' E 008°57'3 6.8
2018-Feb-10 22:30N 44°22' E 009°01'1 1.7
2018-Feb-10 21:42N 44°22' E 009°03'0 0.0
2018-Feb-10 21:21N 44°22' E 009°03'0 0.0
2018-Feb-10 20:51N 44°22' E 009°03'0 0.0
2018-Feb-10 20:27N 44°22' E 009°03'0 0.0
2018-Feb-10 19:51N 44°22' E 009°03'0 0.1
2018-Feb-10 19:30N 44°22' E 009°03'  
Track history (hours):
 
Tides and Currents Weather Stations Pressure Air Temp Water Temp Dewpoint Dewpoint Depression Visibility Wind Speed Wind Dir Waves Ship Positions

Laguepe

Last reported at 2018-Feb-20 18:57 UTC. Time now 2018-Feb-20 19:28 UTC.
Position N 44°19' E 008°30'.

Length 81 m; draft 3.2 m.

Type: Cargo ship. MMSI: 256681000.

Date/timePositionNaut miles runAvg speedWind from/ knotsBaromVisibWave heightAir tempDewpointWater temp
2018-Feb-20 18:57N 44°19' E 008°30'0 0.0
2018-Feb-20 18:27N 44°19' E 008°30'0 0.0
2018-Feb-20 17:57N 44°19' E 008°30'0 0.0
2018-Feb-20 17:27N 44°19' E 008°30'0 0.0
2018-Feb-20 16:57N 44°19' E 008°30'0 0.0
2018-Feb-20 16:27N 44°19' E 008°30'0 0.0
2018-Feb-20 15:57N 44°19' E 008°30'0 0.0
2018-Feb-20 15:27N 44°19' E 008°30'0 0.0
2018-Feb-20 14:51N 44°19' E 008°30'0 0.0
2018-Feb-20 14:27N 44°19' E 008°30'0 0.0
2018-Feb-20 13:57N 44°19' E 008°30'0 0.0
2018-Feb-20 12:57N 44°19' E 008°30'0 0.0
2018-Feb-20 12:27N 44°19' E 008°30'0 0.0
2018-Feb-20 11:45N 44°19' E 008°30'0 0.0
2018-Feb-20 11:21N 44°19' E 008°30'0 0.0
2018-Feb-20 10:33N 44°19' E 008°30'0 0.1
2018-Feb-20 10:27N 44°19' E 008°30'0 0.0
2018-Feb-20 09:27N 44°19' E 008°30'0 0.0
2018-Feb-20 08:57N 44°19' E 008°30'0 0.0
2018-Feb-20 08:27N 44°19' E 008°30'1 1.3
2018-Feb-20 08:01N 44°19' E 008°30'3 6.6
2018-Feb-20 07:30N 44°16' E 008°31'3 6.3
2018-Feb-20 06:59N 44°12' E 008°31'3 6.3
2018-Feb-20 06:30N 44°10' E 008°29'3 6.6
2018-Feb-20 06:00N 44°07' E 008°26'3 6.1
2018-Feb-20 05:27N 44°04' E 008°24'52 6.8
2018-Feb-19 21:43N 43°30' E 007°29'3 7.2
2018-Feb-19 21:20N 43°29' E 007°26'3 7.3
2018-Feb-19 21:00N 43°27' E 007°23'9 7.0
2018-Feb-19 19:44N 43°22' E 007°13'2 7.1
2018-Feb-19 19:25N 43°20' E 007°11'3 7.1
2018-Feb-19 19:01N 43°19' E 007°08'4 7.1
2018-Feb-19 18:31N 43°16' E 007°04'93 7.4
2018-Feb-19 05:57N 43°23' E 004°56'4 8.3
2018-Feb-19 05:31N 43°23' E 004°51'2 4.1
2018-Feb-19 05:01N 43°23' E 004°49'0 0.1
2018-Feb-19 04:30N 43°23' E 004°48'0 0.0
2018-Feb-19 03:59N 43°23' E 004°48'0 0.0
2018-Feb-19 03:29N 43°23' E 004°48'0 0.0
2018-Feb-19 02:59N 43°23' E 004°48'0 0.0
2018-Feb-19 02:29N 43°23' E 004°48'0 0.0
2018-Feb-19 01:59N 43°23' E 004°48'0 0.0
2018-Feb-19 01:29N 43°23' E 004°48'0 0.0
2018-Feb-19 00:59N 43°23' E 004°48'0 0.0
2018-Feb-19 00:29N 43°23' E 004°48'0 0.0
2018-Feb-18 23:59N 43°23' E 004°48'0 0.0
2018-Feb-18 23:23N 43°23' E 004°48'0 0.0
2018-Feb-18 22:59N 43°23' E 004°48'0 0.0
2018-Feb-18 22:26N 43°23' E 004°48'0 0.0
2018-Feb-18 21:59N 43°23' E 004°48'0 0.0
2018-Feb-18 21:29N 43°23' E 004°48'0 0.0
2018-Feb-18 20:59N 43°23' E 004°48'0 0.0
2018-Feb-18 20:29N 43°23' E 004°48'0 0.0
2018-Feb-18 19:56N 43°23' E 004°48'0 0.0
2018-Feb-18 19:29N 43°23' E 004°48'0 0.0
2018-Feb-18 18:56N 43°23' E 004°48'0 0.0
2018-Feb-18 18:29N 43°23' E 004°48'0 0.0
2018-Feb-18 17:56N 43°23' E 004°48'0 0.0
2018-Feb-18 17:29N 43°23' E 004°48'0 0.0
2018-Feb-18 16:59N 43°23' E 004°48'0 0.0
2018-Feb-18 16:30N 43°23' E 004°48'0 0.0
2018-Feb-18 16:00N 43°23' E 004°48'0 0.0
2018-Feb-18 15:30N 43°23' E 004°48'0 0.0
2018-Feb-18 15:00N 43°23' E 004°48'0 0.0
2018-Feb-18 14:30N 43°23' E 004°48'0 0.9
2018-Feb-18 14:00N 43°23' E 004°48'5 8.6
2018-Feb-18 13:25N 43°28' E 004°45'  
2018-Feb-14 20:23N 43°26' E 004°44'3 7.2
2018-Feb-14 20:00N 43°24' E 004°47'2 3.1
2018-Feb-14 19:30N 43°23' E 004°49'0 0.3
2018-Feb-14 19:00N 43°23' E 004°48'3 6.0
2018-Feb-14 18:30N 43°24' E 004°53'4 8.0
2018-Feb-14 17:59N 43°22' E 004°58'3 6.0
2018-Feb-14 17:30N 43°19' E 004°59'4 8.0
2018-Feb-14 17:00N 43°16' E 005°03'4 8.2
2018-Feb-14 16:30N 43°13' E 005°07'82 6.9
2018-Feb-14 04:39N 43°14' E 006°59'1 8.3
2018-Feb-14 04:30N 43°15' E 007°01'4 8.9
2018-Feb-14 04:00N 43°18' E 007°06'4 8.7
2018-Feb-14 03:30N 43°20' E 007°10'5 8.6
2018-Feb-14 02:59N 43°23' E 007°15'5 8.9
2018-Feb-14 02:28N 43°26' E 007°20'4 9.0
2018-Feb-14 02:00N 43°28' E 007°25'62 8.6
2018-Feb-13 18:49N 44°09' E 008°29'3 8.0
2018-Feb-13 18:30N 44°11' E 008°32'4 8.9
2018-Feb-13 18:00N 44°13' E 008°37'4 9.0
2018-Feb-13 17:30N 44°15' E 008°42'5 9.5
2018-Feb-13 17:00N 44°18' E 008°48'5 9.3
2018-Feb-13 16:30N 44°20' E 008°53'4 7.1
2018-Feb-13 16:00N 44°24' E 008°53'1 1.2
2018-Feb-13 15:29N 44°24' E 008°52'0 0.0
2018-Feb-13 14:59N 44°24' E 008°52'0 0.0
2018-Feb-13 14:29N 44°24' E 008°52'0 0.0
2018-Feb-13 13:59N 44°24' E 008°52'0 0.0
2018-Feb-13 13:26N 44°24' E 008°52'0 0.0
2018-Feb-13 12:59N 44°24' E 008°52'0 0.0
2018-Feb-13 12:26N 44°24' E 008°52'0 0.0
2018-Feb-13 11:53N 44°24' E 008°52'0 0.0
2018-Feb-13 11:26N 44°24' E 008°52'0 0.0
2018-Feb-13 10:59N 44°24' E 008°52'0 0.0
2018-Feb-13 10:29N 44°24' E 008°52'0 0.0
2018-Feb-13 09:59N 44°24' E 008°52'0 0.0
2018-Feb-13 09:26N 44°24' E 008°52'0 0.0
2018-Feb-13 08:56N 44°24' E 008°52'0 0.0
2018-Feb-13 08:26N 44°24' E 008°52'0 0.0
2018-Feb-13 07:56N 44°24' E 008°52'0 0.0
2018-Feb-13 07:26N 44°24' E 008°52'0 0.0
2018-Feb-13 06:56N 44°24' E 008°52'0 0.0
2018-Feb-13 06:29N 44°24' E 008°52'0 0.0
2018-Feb-13 05:59N 44°24' E 008°52'0 0.0
2018-Feb-13 05:29N 44°24' E 008°52'0 0.0
2018-Feb-13 04:59N 44°24' E 008°52'0 0.0
2018-Feb-13 04:29N 44°24' E 008°52'0 0.0
2018-Feb-13 03:59N 44°24' E 008°52'0 0.0
2018-Feb-13 03:29N 44°24' E 008°52'0 0.0
2018-Feb-13 02:59N 44°24' E 008°52'0 0.0
2018-Feb-13 02:29N 44°24' E 008°52'0 0.0
2018-Feb-13 01:59N 44°24' E 008°52'0 0.0
2018-Feb-13 01:29N 44°24' E 008°52'0 0.0
2018-Feb-13 00:59N 44°24' E 008°52'0 0.0
2018-Feb-13 00:29N 44°24' E 008°52'0 0.0
2018-Feb-12 23:59N 44°24' E 008°52'0 0.0
2018-Feb-12 23:20N 44°24' E 008°52'0 0.0
2018-Feb-12 22:59N 44°24' E 008°52'0 0.0
2018-Feb-12 22:29N 44°24' E 008°52'0 0.0
2018-Feb-12 21:53N 44°24' E 008°52'0 0.0
2018-Feb-12 21:29N 44°24' E 008°52'0 0.0
2018-Feb-12 20:56N 44°24' E 008°52'0 0.0
2018-Feb-12 20:29N 44°24' E 008°52'0 0.0
2018-Feb-12 19:53N 44°24' E 008°52'0 0.0
2018-Feb-12 19:26N 44°24' E 008°52'0 0.0
2018-Feb-12 18:59N 44°24' E 008°52'0 0.0
2018-Feb-12 18:26N 44°24' E 008°52'0 0.0
2018-Feb-12 17:59N 44°24' E 008°52'0 0.0
2018-Feb-12 17:26N 44°24' E 008°52'0 0.0
2018-Feb-12 16:56N 44°24' E 008°52'0 0.0
2018-Feb-12 16:29N 44°24' E 008°52'0 0.0
2018-Feb-12 15:59N 44°24' E 008°52'0 0.0
2018-Feb-12 15:29N 44°24' E 008°52'0 0.0
2018-Feb-12 14:59N 44°24' E 008°52'0 0.0
2018-Feb-12 14:29N 44°24' E 008°52'0 0.0
2018-Feb-12 13:59N 44°24' E 008°52'0 0.0
2018-Feb-12 13:29N 44°24' E 008°52'0 0.0
2018-Feb-12 12:59N 44°24' E 008°52'0 0.0
2018-Feb-12 12:29N 44°24' E 008°52'0 0.0
2018-Feb-12 11:59N 44°24' E 008°52'0 0.0
2018-Feb-12 11:29N 44°24' E 008°52'0 0.0
2018-Feb-12 10:59N 44°24' E 008°52'0 0.0
2018-Feb-12 10:29N 44°24' E 008°52'0 0.0
2018-Feb-12 09:59N 44°24' E 008°52'0 0.0
2018-Feb-12 09:23N 44°24' E 008°52'0 0.0
2018-Feb-12 08:50N 44°24' E 008°52'0 0.0
2018-Feb-12 08:20N 44°24' E 008°52'0 0.0
2018-Feb-12 07:59N 44°24' E 008°52'0 0.0
2018-Feb-12 07:23N 44°24' E 008°52'0 0.0
2018-Feb-12 06:50N 44°24' E 008°52'0 0.0
2018-Feb-12 06:26N 44°24' E 008°52'0 0.0
2018-Feb-12 05:59N 44°24' E 008°52'0 0.0
2018-Feb-12 05:26N 44°24' E 008°52'0 0.0
2018-Feb-12 04:56N 44°24' E 008°52'0 0.0
2018-Feb-12 04:26N 44°24' E 008°52'0 0.0
2018-Feb-12 03:56N 44°24' E 008°52'0 0.0
2018-Feb-12 03:26N 44°24' E 008°52'0 0.0
2018-Feb-12 02:56N 44°24' E 008°52'0 0.0
2018-Feb-12 02:29N 44°24' E 008°52'0 0.0
2018-Feb-12 01:59N 44°24' E 008°52'0 0.0
2018-Feb-12 01:29N 44°24' E 008°52'0 0.0
2018-Feb-12 00:59N 44°24' E 008°52'0 0.0
2018-Feb-12 00:29N 44°24' E 008°52'0 0.0
2018-Feb-11 23:59N 44°24' E 008°52'0 0.0
2018-Feb-11 23:29N 44°24' E 008°52'0 0.0
2018-Feb-11 22:59N 44°24' E 008°52'0 0.0
2018-Feb-11 22:29N 44°24' E 008°52'0 0.0
2018-Feb-11 21:59N 44°24' E 008°52'0 0.0
2018-Feb-11 21:29N 44°24' E 008°52'0 0.0
2018-Feb-11 20:59N 44°24' E 008°52'0 0.0
2018-Feb-11 20:29N 44°24' E 008°52'0 0.0
2018-Feb-11 19:59N 44°24' E 008°52'0 0.0
2018-Feb-11 19:26N 44°24' E 008°52'0 0.0
2018-Feb-11 18:59N 44°24' E 008°52'0 0.0
2018-Feb-11 18:26N 44°24' E 008°52'0 0.0
2018-Feb-11 17:53N 44°24' E 008°52'0 0.0
2018-Feb-11 17:26N 44°24' E 008°52'0 0.0
2018-Feb-11 16:56N 44°24' E 008°52'0 0.0
2018-Feb-11 16:29N 44°24' E 008°52'0 0.0
2018-Feb-11 15:53N 44°24' E 008°52'0 0.0
2018-Feb-11 15:29N 44°24' E 008°52'0 0.0
2018-Feb-11 14:56N 44°24' E 008°52'0 0.0
2018-Feb-11 14:29N 44°24' E 008°52'0 0.0
2018-Feb-11 13:59N 44°24' E 008°52'0 0.0
2018-Feb-11 13:26N 44°24' E 008°52'0 0.0
2018-Feb-11 12:59N 44°24' E 008°52'0 0.0
2018-Feb-11 12:29N 44°24' E 008°52'0 0.0
2018-Feb-11 11:59N 44°24' E 008°52'0 0.0
2018-Feb-11 11:29N 44°24' E 008°52'0 0.0
2018-Feb-11 10:59N 44°24' E 008°52'0 0.0
2018-Feb-11 10:29N 44°24' E 008°52'0 0.0
2018-Feb-11 09:59N 44°24' E 008°52'0 0.0
2018-Feb-11 09:29N 44°24' E 008°52'0 0.0
2018-Feb-11 08:59N 44°24' E 008°52'0 0.0
2018-Feb-11 08:29N 44°24' E 008°52'0 0.0
2018-Feb-11 07:59N 44°24' E 008°52'0 0.0
2018-Feb-11 07:29N 44°24' E 008°52'0 0.0
2018-Feb-11 06:50N 44°24' E 008°52'0 0.0
2018-Feb-11 06:29N 44°24' E 008°52'0 0.0
2018-Feb-11 05:59N 44°24' E 008°52'0 0.0
2018-Feb-11 05:26N 44°24' E 008°52'0 0.0
2018-Feb-11 04:56N 44°24' E 008°52'0 0.0
2018-Feb-11 04:29N 44°24' E 008°52'0 0.0
2018-Feb-11 03:56N 44°24' E 008°52'0 0.0
2018-Feb-11 03:20N 44°24' E 008°52'0 0.0
2018-Feb-11 02:56N 44°24' E 008°52'0 0.0
2018-Feb-11 02:23N 44°24' E 008°52'0 0.0
2018-Feb-11 01:59N 44°24' E 008°52'0 0.0
2018-Feb-11 01:26N 44°24' E 008°52'0 0.0
2018-Feb-11 00:56N 44°24' E 008°52'0 0.0
2018-Feb-11 00:27N 44°24' E 008°52'0 0.0
2018-Feb-11 00:00N 44°24' E 008°52'1 1.3
2018-Feb-10 23:30N 44°24' E 008°53'3 6.0
2018-Feb-10 23:00N 44°22' E 008°57'3 6.8
2018-Feb-10 22:30N 44°22' E 009°01'1 1.7
2018-Feb-10 21:42N 44°22' E 009°03'0 0.0
2018-Feb-10 21:21N 44°22' E 009°03'0 0.0
2018-Feb-10 20:51N 44°22' E 009°03'0 0.0
2018-Feb-10 20:27N 44°22' E 009°03'0 0.0
2018-Feb-10 19:51N 44°22' E 009°03'0 0.1
2018-Feb-10 19:30N 44°22' E 009°03'  

Dump ship's entire track history